Time;durP1;ratioP1;P1;durP2;ratioP2;P2;SDS_P1;SDS_P2;PMS_P1;PMS_P2;Temp;Humidity;BMP_temperature;BMP_pressure;BME280_temperature;BME280_humidity;BME280_pressure;Samples;Min_cycle;Max_cycle;Signal;HPM_P1;HPM_P2
2023/04/24 00:00:58;;;;;;;30.48;17.25;;;7.30;99.90;;;;;;5060758;28;20036;-44
2023/04/24 00:03:24;;;;;;;32.58;16.52;;;7.30;99.90;;;;;;5072149;28;20501;-48
2023/04/24 00:05:50;;;;;;;33.45;17.77;;;7.30;99.90;;;;;;5071815;28;20037;-45
2023/04/24 00:08:16;;;;;;;32.63;17.48;;;7.40;99.90;;;;;;5072115;28;20070;-53
2023/04/24 00:10:42;;;;;;;36.17;18.45;;;7.50;99.90;;;;;;5071946;28;20084;-47
2023/04/24 00:13:08;;;;;;;36.50;18.60;;;7.60;99.90;;;;;;5057890;28;20052;-47
2023/04/24 00:15:34;;;;;;;34.85;18.58;;;7.60;99.90;;;;;;5071946;28;20062;-50
2023/04/24 00:18:01;;;;;;;33.13;18.55;;;7.50;99.90;;;;;;5071617;28;20444;-43
2023/04/24 00:20:29;;;;;;;35.65;18.67;;;7.40;99.90;;;;;;5071218;28;20091;-43
2023/04/24 00:22:54;;;;;;;35.20;18.80;;;7.40;99.90;;;;;;5071762;28;20109;-46
2023/04/24 00:25:20;;;;;;;39.05;19.40;;;7.30;99.90;;;;;;5071677;28;20383;-43
2023/04/24 00:27:46;;;;;;;39.33;18.40;;;7.30;99.90;;;;;;5047642;28;20371;-45
2023/04/24 00:30:11;;;;;;;34.80;18.75;;;7.20;99.90;;;;;;5063380;28;20402;-44
2023/04/24 00:32:37;;;;;;;37.13;18.92;;;7.10;99.90;;;;;;5053620;28;20066;-45
2023/04/24 00:35:03;;;;;;;36.95;19.77;;;7.10;99.90;;;;;;5053581;28;20033;-43
2023/04/24 00:37:28;;;;;;;35.25;19.55;;;7.10;99.90;;;;;;5057243;28;20484;-44
2023/04/24 00:39:55;;;;;;;39.65;21.55;;;7.10;99.90;;;;;;5071449;28;20025;-47
2023/04/24 00:42:20;;;;;;;36.08;19.58;;;7.10;99.90;;;;;;5053353;28;20121;-46
2023/04/24 00:44:46;;;;;;;32.90;19.73;;;7.10;99.90;;;;;;5071379;28;20051;-47
2023/04/24 00:47:13;;;;;;;37.33;20.95;;;7.00;99.90;;;;;;5071324;28;20056;-49
2023/04/24 00:49:38;;;;;;;40.58;20.63;;;7.00;99.90;;;;;;5071145;28;20133;-45
2023/04/24 00:52:07;;;;;;;40.25;20.38;;;6.90;99.90;;;;;;5071481;28;20494;-54
2023/04/24 00:54:33;;;;;;;36.53;20.67;;;6.90;99.90;;;;;;5071406;28;20093;-52
2023/04/24 00:56:58;;;;;;;43.25;21.40;;;6.90;99.90;;;;;;5063444;28;20472;-50
2023/04/24 00:59:24;;;;;;;37.03;20.20;;;6.80;99.90;;;;;;5048951;28;20437;-50
2023/04/24 01:01:51;;;;;;;40.75;20.95;;;6.80;99.90;;;;;;5070626;28;20025;-53
2023/04/24 01:04:17;;;;;;;41.95;20.48;;;6.80;99.90;;;;;;5052538;28;20483;-52
2023/04/24 01:06:45;;;;;;;41.67;22.45;;;6.80;99.90;;;;;;5070929;28;20032;-51
2023/04/24 01:09:11;;;;;;;45.03;21.73;;;6.80;99.90;;;;;;5070713;28;20028;-44
2023/04/24 01:11:37;;;;;;;42.47;21.15;;;6.80;99.90;;;;;;5070490;28;20060;-49
2023/04/24 01:14:03;;;;;;;41.30;21.10;;;6.70;99.90;;;;;;5070570;28;20016;-50
2023/04/24 01:16:29;;;;;;;40.80;20.40;;;6.70;99.90;;;;;;5070876;28;20082;-48
2023/04/24 01:18:55;;;;;;;43.55;21.02;;;6.60;99.90;;;;;;5070475;28;20012;-54
2023/04/24 01:21:21;;;;;;;46.03;21.60;;;6.60;99.90;;;;;;5070792;28;20103;-45
2023/04/24 01:23:47;;;;;;;39.58;20.35;;;6.60;99.90;;;;;;5070635;28;20082;-49
2023/04/24 01:26:17;;;;;;;43.38;21.48;;;6.60;99.90;;;;;;5070570;28;20088;-44
2023/04/24 01:28:42;;;;;;;40.08;20.70;;;6.60;99.90;;;;;;5061175;28;20444;-52
2023/04/24 01:31:08;;;;;;;42.90;21.05;;;6.60;99.90;;;;;;5070397;28;20060;-48
2023/04/24 01:33:34;;;;;;;43.72;21.10;;;6.60;99.90;;;;;;5070354;28;20017;-43
2023/04/24 01:36:00;;;;;;;40.78;21.48;;;6.60;99.90;;;;;;5069732;28;20029;-50
2023/04/24 01:38:26;;;;;;;44.35;21.20;;;6.70;99.90;;;;;;5070663;28;20028;-48
2023/04/24 01:40:53;;;;;;;43.38;21.40;;;6.70;99.90;;;;;;5070505;28;20031;-56
2023/04/24 01:43:18;;;;;;;41.55;20.98;;;6.90;99.90;;;;;;5052551;28;20024;-48
2023/04/24 01:45:44;;;;;;;44.63;20.70;;;7.00;99.90;;;;;;5070196;28;20390;-42
2023/04/24 01:48:11;;;;;;;44.58;20.67;;;7.00;99.90;;;;;;5070397;28;20028;-42
2023/04/24 01:50:37;;;;;;;41.38;20.92;;;7.10;99.90;;;;;;5070104;28;20045;-45
2023/04/24 01:53:02;;;;;;;34.65;19.30;;;7.10;99.90;;;;;;5070199;28;20150;-46
2023/04/24 01:55:29;;;;;;;37.55;20.25;;;7.10;99.90;;;;;;5070342;28;20032;-45
2023/04/24 01:57:56;;;;;;;35.05;18.30;;;7.10;99.90;;;;;;5059156;28;20098;-42
2023/04/24 02:00:22;;;;;;;42.35;21.10;;;7.20;99.90;;;;;;5070197;28;20030;-48
2023/04/24 02:02:47;;;;;;;43.90;21.23;;;7.20;99.90;;;;;;5051944;28;20025;-45
2023/04/24 02:05:13;;;;;;;38.78;19.17;;;7.20;99.90;;;;;;5049830;28;20115;-44
2023/04/24 02:07:39;;;;;;;37.03;19.48;;;7.10;99.90;;;;;;5049599;28;20029;-49
2023/04/24 02:10:05;;;;;;;39.15;20.02;;;7.10;99.90;;;;;;5049995;28;20041;-53
2023/04/24 02:12:31;;;;;;;37.88;20.13;;;7.10;99.90;;;;;;5050024;28;20033;-47
2023/04/24 02:14:57;;;;;;;38.40;20.45;;;7.10;99.90;;;;;;5050189;28;20091;-46
2023/04/24 02:17:22;;;;;;;40.08;20.25;;;7.10;99.90;;;;;;5049762;28;20017;-46
2023/04/24 02:19:48;;;;;;;37.60;19.92;;;7.10;99.90;;;;;;5050060;28;20033;-45
2023/04/24 02:22:14;;;;;;;38.15;19.23;;;7.20;99.90;;;;;;5049252;28;20041;-45
2023/04/24 02:24:40;;;;;;;38.78;20.20;;;7.20;99.90;;;;;;5050411;28;20105;-46
2023/04/24 02:27:06;;;;;;;37.58;19.02;;;7.10;99.90;;;;;;5044398;28;20428;-52
2023/04/24 02:29:31;;;;;;;37.10;19.08;;;7.10;99.90;;;;;;5047997;28;20044;-47
2023/04/24 02:31:57;;;;;;;39.55;20.15;;;7.10;99.90;;;;;;5041376;28;20092;-44
2023/04/24 02:34:23;;;;;;;34.15;18.45;;;7.10;99.90;;;;;;5048429;28;20033;-45
2023/04/24 02:36:48;;;;;;;33.65;18.33;;;7.20;99.90;;;;;;5042392;28;20110;-49
2023/04/24 02:39:16;;;;;;;33.65;18.50;;;7.20;99.90;;;;;;5046382;28;20017;-47
2023/04/24 02:41:42;;;;;;;38.08;19.05;;;7.10;99.90;;;;;;5043434;28;20064;-42
2023/04/24 02:44:08;;;;;;;35.00;18.63;;;7.10;99.90;;;;;;5044483;28;20133;-46
2023/04/24 02:46:34;;;;;;;34.60;19.60;;;7.10;99.90;;;;;;5044781;28;20053;-48
2023/04/24 02:48:59;;;;;;;38.28;19.55;;;7.10;99.90;;;;;;5046527;28;20128;-45
2023/04/24 02:51:25;;;;;;;35.55;19.15;;;7.00;99.90;;;;;;5053308;28;20021;-48
2023/04/24 02:53:51;;;;;;;36.85;19.73;;;7.00;99.90;;;;;;5053526;28;20119;-45
2023/04/24 02:56:16;;;;;;;36.65;18.90;;;7.00;99.90;;;;;;5053023;28;20123;-47
2023/04/24 02:58:42;;;;;;;34.70;18.75;;;7.00;99.90;;;;;;5050760;28;20029;-44
2023/04/24 03:01:09;;;;;;;35.10;19.13;;;7.00;99.90;;;;;;5046846;28;20484;-43
2023/04/24 03:03:35;;;;;;;41.17;20.83;;;7.00;99.90;;;;;;5053431;28;20039;-46
2023/04/24 03:06:01;;;;;;;40.00;20.77;;;7.00;99.90;;;;;;5053348;28;20025;-49
2023/04/24 03:08:27;;;;;;;38.55;19.88;;;7.10;99.90;;;;;;5053164;28;20384;-46
2023/04/24 03:10:52;;;;;;;39.60;20.73;;;7.10;99.90;;;;;;5035336;28;20083;-49
2023/04/24 03:13:18;;;;;;;41.30;20.80;;;7.10;99.90;;;;;;5053063;28;20029;-52
2023/04/24 03:15:44;;;;;;;39.25;19.63;;;7.10;99.90;;;;;;5052941;28;20436;-43
2023/04/24 03:18:10;;;;;;;35.97;19.27;;;7.10;99.90;;;;;;5051489;28;20045;-45
2023/04/24 03:20:37;;;;;;;42.67;20.85;;;7.10;99.90;;;;;;5021273;28;20044;-44
2023/04/24 03:23:03;;;;;;;37.38;20.13;;;7.10;99.90;;;;;;5053086;28;20436;-44
2023/04/24 03:25:28;;;;;;;36.72;19.67;;;7.10;99.90;;;;;;5035028;28;20024;-47
2023/04/24 03:27:54;;;;;;;38.63;19.52;;;7.10;99.90;;;;;;5052739;28;20059;-54
2023/04/24 03:30:20;;;;;;;38.10;19.48;;;7.00;99.90;;;;;;5051811;28;20047;-52
2023/04/24 03:32:46;;;;;;;36.83;19.58;;;7.00;99.90;;;;;;5047007;28;20017;-47
2023/04/24 03:35:12;;;;;;;37.30;19.50;;;7.00;99.90;;;;;;5051909;28;20120;-44
2023/04/24 03:37:37;;;;;;;38.35;20.23;;;7.00;99.90;;;;;;5052516;28;20029;-47
2023/04/24 03:40:03;;;;;;;36.45;18.45;;;7.00;99.90;;;;;;5052553;28;20063;-43
2023/04/24 03:42:29;;;;;;;36.28;20.08;;;7.00;99.90;;;;;;5052297;28;20098;-50
2023/04/24 03:44:55;;;;;;;40.83;19.52;;;6.90;99.90;;;;;;5052788;28;20029;-46
2023/04/24 03:47:20;;;;;;;36.60;18.35;;;6.80;99.90;;;;;;5052262;28;20159;-48
2023/04/24 03:49:46;;;;;;;37.90;18.60;;;6.80;99.90;;;;;;5052468;28;20044;-43
2023/04/24 03:52:11;;;;;;;32.03;18.33;;;6.70;99.90;;;;;;5034368;28;20112;-43
2023/04/24 03:54:37;;;;;;;35.53;18.27;;;6.60;99.90;;;;;;5038275;28;20032;-45
2023/04/24 03:57:04;;;;;;;33.13;18.33;;;6.60;99.90;;;;;;5052157;28;20025;-53
2023/04/24 03:59:30;;;;;;;33.65;18.23;;;6.60;99.90;;;;;;5051902;28;20170;-54
2023/04/24 04:01:55;;;;;;;38.47;19.50;;;6.70;99.90;;;;;;5045329;28;20089;-45
2023/04/24 04:04:22;;;;;;;36.50;19.65;;;6.70;99.90;;;;;;5048230;28;20071;-49
2023/04/24 04:06:48;;;;;;;33.25;18.55;;;6.80;99.90;;;;;;5052047;28;20017;-44
2023/04/24 04:09:14;;;;;;;34.45;18.65;;;6.80;99.90;;;;;;5051554;28;20028;-47
2023/04/24 04:11:40;;;;;;;33.92;17.80;;;6.80;99.90;;;;;;5051669;28;20056;-49
2023/04/24 04:14:06;;;;;;;31.85;18.13;;;6.70;99.90;;;;;;5051746;28;20103;-46
2023/04/24 04:16:31;;;;;;;34.33;19.00;;;6.70;99.90;;;;;;5051684;28;20032;-47
2023/04/24 04:18:57;;;;;;;35.38;19.30;;;6.70;99.90;;;;;;5051744;28;20052;-46
2023/04/24 04:21:22;;;;;;;34.13;20.00;;;6.80;99.90;;;;;;5051721;28;20036;-45
2023/04/24 04:23:48;;;;;;;33.33;19.08;;;6.80;99.90;;;;;;5051167;28;20029;-51
2023/04/24 04:26:14;;;;;;;36.30;19.77;;;6.90;99.90;;;;;;5051062;28;20428;-49
2023/04/24 04:28:40;;;;;;;33.78;18.65;;;6.90;99.90;;;;;;5051321;28;20025;-54
2023/04/24 04:31:07;;;;;;;36.97;19.25;;;6.90;99.90;;;;;;5050451;28;20064;-44
2023/04/24 04:33:33;;;;;;;30.45;18.35;;;7.00;99.90;;;;;;5051036;28;20430;-45
2023/04/24 04:35:59;;;;;;;32.05;18.25;;;7.00;99.90;;;;;;5050937;28;20024;-44
2023/04/24 04:38:26;;;;;;;35.63;19.55;;;7.00;99.90;;;;;;5051297;28;20032;-49
2023/04/24 04:40:52;;;;;;;34.38;18.55;;;7.00;99.90;;;;;;5051060;28;20101;-43
2023/04/24 04:43:17;;;;;;;28.67;17.65;;;7.00;99.90;;;;;;5033308;28;20479;-44
2023/04/24 04:45:44;;;;;;;30.85;18.38;;;6.90;99.90;;;;;;5050693;28;20141;-45
2023/04/24 04:48:12;;;;;;;32.67;17.88;;;6.90;99.90;;;;;;5051250;28;20383;-43
2023/04/24 04:50:38;;;;;;;32.40;17.83;;;6.80;99.90;;;;;;5050422;28;20048;-46
2023/04/24 04:53:04;;;;;;;32.35;18.15;;;6.80;99.90;;;;;;5050961;28;20021;-46
2023/04/24 04:55:30;;;;;;;32.20;17.65;;;6.90;99.90;;;;;;5050437;28;20098;-45
2023/04/24 04:57:56;;;;;;;29.15;18.08;;;6.90;99.90;;;;;;5050639;28;20025;-45
2023/04/24 05:00:21;;;;;;;32.28;18.08;;;7.00;99.90;;;;;;5050862;28;20386;-46
2023/04/24 05:02:47;;;;;;;31.15;17.25;;;7.10;99.90;;;;;;5048003;28;20468;-43
2023/04/24 05:05:13;;;;;;;30.20;18.52;;;7.10;99.90;;;;;;5050914;28;20455;-49
2023/04/24 05:07:38;;;;;;;29.85;17.23;;;7.20;99.90;;;;;;5050760;28;20036;-43
2023/04/24 05:10:04;;;;;;;30.25;17.73;;;7.20;99.90;;;;;;5050144;28;20727;-43
2023/04/24 05:12:30;;;;;;;32.28;19.00;;;7.30;99.90;;;;;;5050626;28;20120;-43
2023/04/24 05:14:55;;;;;;;30.63;19.48;;;7.30;99.90;;;;;;5050639;28;20128;-48
2023/04/24 05:17:21;;;;;;;28.20;17.55;;;7.30;99.90;;;;;;5049910;28;20051;-52
2023/04/24 05:19:48;;;;;;;30.77;18.17;;;7.40;99.90;;;;;;5031084;28;20037;-49
2023/04/24 05:22:13;;;;;;;29.92;17.83;;;7.40;99.90;;;;;;5048440;28;20017;-43
2023/04/24 05:24:39;;;;;;;28.90;18.02;;;7.40;99.90;;;;;;5030920;28;20050;-52
2023/04/24 05:27:05;;;;;;;30.75;17.15;;;7.50;99.90;;;;;;5048642;28;20052;-44
2023/04/24 05:29:31;;;;;;;27.35;16.98;;;7.50;99.90;;;;;;5048933;28;20052;-48
2023/04/24 05:31:57;;;;;;;26.25;16.75;;;7.60;99.90;;;;;;5043956;28;20025;-49
2023/04/24 05:34:23;;;;;;;27.42;16.75;;;7.60;99.90;;;;;;5049441;28;20025;-47
2023/04/24 05:36:50;;;;;;;27.45;16.77;;;7.50;99.90;;;;;;5050340;28;20052;-44
2023/04/24 05:39:16;;;;;;;28.85;17.08;;;7.50;99.90;;;;;;5048497;28;20025;-45
2023/04/24 05:41:42;;;;;;;24.30;15.65;;;7.50;99.90;;;;;;5048797;28;20021;-42
2023/04/24 05:44:07;;;;;;;25.70;16.17;;;7.50;99.90;;;;;;5048478;28;20032;-47
2023/04/24 05:46:33;;;;;;;24.60;15.80;;;7.50;99.90;;;;;;5030799;28;20419;-53
2023/04/24 05:48:59;;;;;;;22.77;15.50;;;7.50;99.90;;;;;;5048842;28;20051;-53
2023/04/24 05:51:25;;;;;;;25.67;15.88;;;7.60;99.90;;;;;;5049320;28;20021;-52
2023/04/24 05:53:51;;;;;;;22.35;14.77;;;7.60;99.90;;;;;;5051350;28;20026;-46
2023/04/24 05:56:17;;;;;;;22.73;15.90;;;7.70;99.90;;;;;;5052787;28;20037;-47
2023/04/24 05:58:43;;;;;;;21.55;13.90;;;7.80;99.90;;;;;;5053410;28;20063;-46
2023/04/24 06:01:09;;;;;;;21.55;13.80;;;7.90;99.90;;;;;;5043056;28;20025;-48
2023/04/24 06:03:35;;;;;;;23.40;13.70;;;8.00;99.90;;;;;;5050419;28;20525;-54
2023/04/24 06:06:00;;;;;;;19.75;13.48;;;8.10;99.90;;;;;;5050172;28;20017;-50
2023/04/24 06:08:26;;;;;;;20.35;14.40;;;8.20;99.90;;;;;;5050457;28;20017;-50
2023/04/24 06:10:51;;;;;;;20.38;14.57;;;8.20;99.90;;;;;;5049922;28;20084;-46
2023/04/24 06:13:17;;;;;;;18.88;13.93;;;8.30;99.90;;;;;;5050293;28;20025;-49
2023/04/24 06:15:43;;;;;;;18.60;13.15;;;8.30;99.90;;;;;;5050328;28;20029;-48
2023/04/24 06:18:12;;;;;;;18.90;13.05;;;8.40;99.90;;;;;;5050225;28;20471;-54
2023/04/24 06:20:38;;;;;;;22.03;14.73;;;8.50;99.90;;;;;;5050714;28;20076;-45
2023/04/24 06:23:04;;;;;;;18.10;13.40;;;8.80;99.90;;;;;;5054348;28;20068;-51
2023/04/24 06:25:30;;;;;;;18.17;11.75;;;9.50;99.90;;;;;;5054120;28;20036;-52
2023/04/24 06:27:56;;;;;;;15.88;11.50;;;10.50;99.90;;;;;;5053347;28;20490;-50
2023/04/24 06:30:22;;;;;;;14.90;11.48;;;11.50;99.90;;;;;;5053027;28;20112;-48
2023/04/24 06:32:48;;;;;;;13.55;10.35;;;12.60;99.90;;;;;;5053618;28;20104;-47
2023/04/24 06:35:13;;;;;;;14.20;10.30;;;13.60;99.90;;;;;;5053463;28;20032;-45
2023/04/24 06:37:41;;;;;;;12.73;9.70;;;14.30;99.90;;;;;;5053708;28;20445;-43
2023/04/24 06:40:07;;;;;;;13.27;10.05;;;14.80;99.90;;;;;;5053904;28;20033;-47
2023/04/24 06:42:34;;;;;;;13.60;9.82;;;15.30;99.90;;;;;;5053703;28;20108;-49
2023/04/24 06:45:00;;;;;;;11.88;9.70;;;15.70;99.90;;;;;;5044617;28;20036;-48
2023/04/24 06:47:26;;;;;;;12.05;9.50;;;15.90;99.90;;;;;;5053479;28;20025;-48
2023/04/24 06:49:52;;;;;;;11.35;9.23;;;16.10;99.90;;;;;;5053522;28;20033;-52
2023/04/24 06:52:18;;;;;;;10.75;9.15;;;16.50;99.90;;;;;;5053458;28;20128;-43
2023/04/24 06:54:44;;;;;;;9.75;8.63;;;16.70;99.90;;;;;;5053049;28;20028;-49
2023/04/24 06:57:10;;;;;;;10.18;8.50;;;17.20;99.90;;;;;;5047529;28;20029;-45
2023/04/24 06:59:36;;;;;;;12.35;10.77;;;17.40;99.90;;;;;;5052373;28;20021;-45
2023/04/24 07:02:02;;;;;;;11.23;9.00;;;18.00;98.80;;;;;;5049561;28;20055;-46
2023/04/24 07:04:28;;;;;;;10.88;8.65;;;18.70;97.10;;;;;;5048736;28;20076;-47
2023/04/24 07:06:55;;;;;;;10.80;9.40;;;19.10;94.20;;;;;;5048684;28;20034;-44
2023/04/24 07:09:23;;;;;;;11.77;9.90;;;18.50;91.80;;;;;;5057276;28;20093;-46
2023/04/24 07:11:49;;;;;;;9.60;8.52;;;18.80;93.90;;;;;;5052703;28;20091;-45
2023/04/24 07:14:15;;;;;;;13.15;8.85;;;19.60;91.00;;;;;;5052753;28;20025;-49
2023/04/24 07:16:42;;;;;;;9.82;8.38;;;20.10;91.20;;;;;;5053253;28;20109;-46
2023/04/24 07:19:07;;;;;;;9.65;8.38;;;20.50;87.60;;;;;;5052815;28;20496;-46
2023/04/24 07:21:33;;;;;;;12.38;9.05;;;20.40;86.00;;;;;;5053485;28;20104;-49
2023/04/24 07:23:59;;;;;;;11.15;9.00;;;20.40;81.80;;;;;;5052922;28;20467;-44
2023/04/24 07:26:26;;;;;;;11.18;8.63;;;20.20;84.00;;;;;;5034867;28;20369;-48
2023/04/24 07:28:52;;;;;;;11.23;8.82;;;19.30;84.80;;;;;;5052714;28;20159;-44
2023/04/24 07:31:17;;;;;;;13.15;8.80;;;18.60;83.90;;;;;;5052729;28;20477;-44
2023/04/24 07:33:43;;;;;;;10.43;9.15;;;18.10;89.80;;;;;;5051720;28;20348;-49
2023/04/24 07:36:15;;;;;;;12.18;9.50;;;18.20;90.60;;;;;;5051378;28;20029;-46
2023/04/24 07:38:41;;;;;;;11.88;8.95;;;18.30;88.30;;;;;;5051392;28;20075;-44
2023/04/24 07:41:07;;;;;;;12.23;8.70;;;18.50;90.90;;;;;;5052356;28;20072;-51
2023/04/24 07:43:32;;;;;;;11.57;8.55;;;18.30;88.70;;;;;;5052751;28;20468;-50
2023/04/24 07:45:58;;;;;;;10.77;8.52;;;17.60;90.90;;;;;;5051911;28;20029;-42
2023/04/24 07:48:25;;;;;;;11.98;9.02;;;17.90;93.40;;;;;;5052313;28;20111;-50
2023/04/24 07:50:51;;;;;;;13.55;9.20;;;17.40;90.40;;;;;;5052160;28;20728;-43
2023/04/24 07:53:17;;;;;;;14.10;9.50;;;16.50;92.90;;;;;;5052428;28;20033;-43
2023/04/24 07:55:43;;;;;;;11.85;8.60;;;17.00;95.20;;;;;;5051627;28;20054;-53
2023/04/24 07:58:08;;;;;;;11.80;8.68;;;17.60;94.40;;;;;;5046347;28;20025;-44
2023/04/24 08:00:34;;;;;;;10.13;8.50;;;17.60;92.10;;;;;;5051924;28;20510;-48
2023/04/24 08:03:00;;;;;;;11.68;8.75;;;17.20;92.60;;;;;;5052149;28;20151;-43
2023/04/24 08:05:27;;;;;;;12.75;8.70;;;17.10;92.10;;;;;;5052235;28;20075;-48
2023/04/24 08:07:53;;;;;;;12.02;8.88;;;18.10;96.60;;;;;;5052157;28;20036;-44
2023/04/24 08:10:18;;;;;;;10.77;8.48;;;19.00;91.00;;;;;;5041036;28;20411;-44
2023/04/24 08:12:44;;;;;;;10.73;7.55;;;19.60;88.80;;;;;;5047064;28;20038;-45
2023/04/24 08:15:10;;;;;;;11.52;7.22;;;20.70;86.30;;;;;;5041067;28;20017;-45
2023/04/24 08:17:36;;;;;;;9.52;7.22;;;21.70;80.60;;;;;;5043340;28;20033;-43
2023/04/24 08:20:04;;;;;;;9.35;7.60;;;20.90;73.60;;;;;;5051926;28;20036;-46
2023/04/24 08:22:30;;;;;;;10.50;8.30;;;20.30;75.50;;;;;;5051976;28;20032;-47
2023/04/24 08:24:56;;;;;;;10.27;7.68;;;19.20;80.10;;;;;;5064834;28;20036;-47
2023/04/24 08:27:23;;;;;;;11.27;8.00;;;18.70;80.70;;;;;;5050847;28;20049;-54
2023/04/24 08:29:49;;;;;;;8.88;7.78;;;18.00;82.50;;;;;;5051435;28;20071;-46
2023/04/24 08:32:15;;;;;;;13.07;7.70;;;18.10;86.60;;;;;;5051472;28;20029;-46
2023/04/24 08:34:40;;;;;;;10.68;7.97;;;17.80;83.80;;;;;;5051442;28;20043;-48
2023/04/24 08:37:06;;;;;;;10.90;7.95;;;17.60;87.80;;;;;;5051180;28;20025;-49
2023/04/24 08:39:31;;;;;;;9.40;7.22;;;17.80;88.00;;;;;;5051303;28;20104;-43
2023/04/24 08:42:05;;;;;;;9.77;6.55;;;18.50;86.10;;;;;;5051541;28;20024;-48
2023/04/24 08:44:32;;;;;;;9.25;7.32;;;19.30;82.00;;;;;;5050229;28;20036;-48
2023/04/24 08:46:58;;;;;;;10.45;7.03;;;19.30;80.80;;;;;;5051560;28;20017;-45
2023/04/24 08:49:25;;;;;;;8.18;6.90;;;19.70;81.20;;;;;;5051295;28;20040;-48
2023/04/24 08:51:52;;;;;;;10.48;7.47;;;19.00;82.00;;;;;;5033602;28;20475;-45
2023/04/24 08:54:18;;;;;;;10.40;7.70;;;18.70;81.70;;;;;;5051014;28;20468;-46
2023/04/24 08:56:44;;;;;;;8.48;7.20;;;18.40;81.90;;;;;;5045784;28;20507;-45
2023/04/24 08:59:11;;;;;;;10.52;7.72;;;18.00;82.30;;;;;;5046652;28;20051;-48
2023/04/24 09:01:39;;;;;;;9.90;7.57;;;17.60;85.90;;;;;;5050872;28;20077;-47
2023/04/24 09:04:08;;;;;;;12.60;7.97;;;17.50;86.00;;;;;;5051101;28;20021;-45
2023/04/24 09:06:34;;;;;;;10.80;8.60;;;17.40;86.60;;;;;;5049940;28;20112;-55
2023/04/24 09:09:01;;;;;;;10.32;8.45;;;17.70;89.80;;;;;;5014339;28;20033;-45
2023/04/24 09:11:27;;;;;;;9.88;7.75;;;18.80;83.50;;;;;;5046943;28;20053;-50
2023/04/24 09:13:56;;;;;;;10.00;7.25;;;19.70;81.60;;;;;;5050889;28;20021;-53
2023/04/24 09:16:24;;;;;;;8.57;7.13;;;19.80;79.00;;;;;;5047556;28;20380;-50
2023/04/24 09:18:50;;;;;;;9.75;7.22;;;19.00;80.00;;;;;;5050257;28;20033;-46
2023/04/24 09:21:15;;;;;;;9.25;7.78;;;18.20;83.60;;;;;;5049542;28;20088;-48
2023/04/24 09:23:41;;;;;;;11.48;7.88;;;17.10;85.90;;;;;;5048043;28;20032;-49
2023/04/24 09:26:09;;;;;;;10.05;8.13;;;16.80;90.50;;;;;;5050753;28;20024;-46
2023/04/24 09:28:39;;;;;;;9.20;8.10;;;16.90;93.40;;;;;;5037333;28;20067;-44
2023/04/24 09:31:17;;;;;;;11.07;8.57;;;17.20;89.00;;;;;;5048755;28;20128;-53
2023/04/24 09:34:09;;;;;;;10.73;8.07;;;18.00;85.50;;;;;;5055903;28;20028;-45
2023/04/24 09:36:37;;;;;;;9.85;7.38;;;18.90;82.50;;;;;;5049004;28;20052;-47
2023/04/24 09:39:05;;;;;;;10.75;6.97;;;19.30;83.10;;;;;;5042056;28;20013;-46
2023/04/24 09:41:32;;;;;;;11.55;7.18;;;18.70;82.10;;;;;;5047495;28;20033;-43
2023/04/24 09:44:15;;;;;;;9.55;7.25;;;18.00;83.00;;;;;;5054551;28;20021;-43
2023/04/24 09:46:42;;;;;;;9.75;7.47;;;17.30;84.50;;;;;;5068364;28;20031;-43
2023/04/24 09:49:09;;;;;;;9.32;6.35;;;18.00;87.90;;;;;;5070552;28;20062;-46
2023/04/24 09:51:37;;;;;;;8.60;6.35;;;19.10;87.30;;;;;;5068176;28;20020;-50
2023/04/24 09:54:04;;;;;;;8.00;6.15;;;21.20;89.30;;;;;;5061770;28;20025;-47
2023/04/24 09:56:34;;;;;;;7.45;6.55;;;22.80;73.40;;;;;;5051030;28;20029;-53
2023/04/24 09:59:06;;;;;;;8.95;7.55;;;22.90;69.50;;;;;;5054761;28;20025;-46
2023/04/24 10:01:33;;;;;;;8.32;6.45;;;21.80;67.90;;;;;;5051451;28;20424;-49
2023/04/24 10:03:59;;;;;;;7.13;6.22;;;20.90;72.90;;;;;;5051580;28;20024;-46
2023/04/24 10:06:35;;;;;;;7.97;6.38;;;19.90;75.50;;;;;;5068989;28;20475;-52
2023/04/24 10:09:01;;;;;;;7.55;6.10;;;19.10;75.20;;;;;;5070793;28;20035;-48
2023/04/24 10:11:27;;;;;;;9.25;6.78;;;18.00;77.70;;;;;;5055890;28;20041;-52
2023/04/24 10:13:53;;;;;;;8.80;6.70;;;17.20;82.90;;;;;;5036019;28;20025;-44
2023/04/24 10:16:22;;;;;;;9.68;7.43;;;16.80;83.80;;;;;;5053508;28;20029;-43
2023/04/24 10:18:48;;;;;;;11.17;6.87;;;16.20;88.10;;;;;;5053557;28;20032;-47
2023/04/24 10:21:15;;;;;;;7.32;6.10;;;16.20;93.20;;;;;;5039996;28;20025;-42
2023/04/24 10:23:42;;;;;;;8.48;6.38;;;18.20;93.90;;;;;;5041663;28;20048;-48
2023/04/24 10:26:09;;;;;;;8.68;5.82;;;19.60;82.50;;;;;;5053931;28;20029;-50
2023/04/24 10:28:36;;;;;;;7.47;5.00;;;20.60;79.60;;;;;;5053024;28;20029;-51
2023/04/24 10:31:02;;;;;;;7.57;5.93;;;22.80;78.40;;;;;;5053101;28;20040;-54
2023/04/24 10:33:30;;;;;;;6.90;5.28;;;23.30;66.10;;;;;;5054091;28;20028;-46
2023/04/24 10:35:58;;;;;;;7.53;5.18;;;23.70;64.20;;;;;;5055847;28;20056;-45
2023/04/24 10:38:26;;;;;;;5.88;4.45;;;23.60;65.30;;;;;;5047952;28;20115;-49
2023/04/24 10:41:06;;;;;;;7.30;4.90;;;22.00;62.90;;;;;;5055741;28;20116;-51
2023/04/24 10:43:33;;;;;;;7.63;5.20;;;20.70;68.60;;;;;;5050803;28;20040;-45
2023/04/24 10:46:04;;;;;;;8.18;4.65;;;19.50;71.70;;;;;;5052697;28;20038;-45
2023/04/24 10:48:30;;;;;;;6.40;4.43;;;18.60;73.40;;;;;;5050143;28;20017;-49
2023/04/24 10:50:56;;;;;;;8.05;5.10;;;17.80;74.10;;;;;;5052811;28;20029;-50
2023/04/24 10:53:23;;;;;;;6.63;5.40;;;17.70;79.50;;;;;;5052942;28;20024;-50
2023/04/24 10:56:03;;;;;;;5.68;4.22;;;19.30;76.90;;;;;;5053061;28;20033;-53
2023/04/24 10:58:47;;;;;;;7.35;4.65;;;19.80;77.00;;;;;;5053444;28;20100;-46
2023/04/24 11:01:26;;;;;;;7.00;4.85;;;19.90;72.00;;;;;;5052626;28;20030;-46
2023/04/24 11:04:02;;;;;;;7.60;4.60;;;19.10;73.80;;;;;;5053292;28;20028;-52
2023/04/24 11:06:36;;;;;;;7.95;4.60;;;18.40;73.10;;;;;;5052363;28;20083;-49
2023/04/24 11:09:11;;;;;;;6.25;4.50;;;17.80;79.00;;;;;;5051918;28;20021;-54
2023/04/24 11:11:39;;;;;;;11.63;8.75;;;17.70;79.70;;;;;;5048780;28;20519;-51
2023/04/24 11:14:06;;;;;;;14.10;9.53;;;16.90;83.40;;;;;;5047981;28;20071;-51
2023/04/24 11:16:46;;;;;;;12.32;9.13;;;16.10;89.20;;;;;;5070792;28;20755;-45
2023/04/24 11:19:15;;;;;;;14.30;10.50;;;15.30;91.80;;;;;;5073446;28;20035;-51
2023/04/24 11:21:49;;;;;;;15.33;9.97;;;14.50;95.40;;;;;;5068626;28;20045;-44
2023/04/24 11:24:28;;;;;;;14.15;10.07;;;14.20;98.20;;;;;;5064937;28;20031;-47
2023/04/24 11:27:19;;;;;;;13.35;9.52;;;14.10;99.70;;;;;;5072857;28;20028;-42
2023/04/24 11:29:54;;;;;;;11.90;8.35;;;14.20;99.60;;;;;;5042723;28;20603;-48
2023/04/24 11:32:39;;;;;;;10.60;7.93;;;14.20;99.90;;;;;;5059490;28;20028;-47
2023/04/24 11:35:16;;;;;;;12.05;8.10;;;14.20;99.90;;;;;;5054119;28;20027;-50
2023/04/24 11:37:43;;;;;;;12.70;8.85;;;14.30;99.90;;;;;;5052856;28;20025;-49
2023/04/24 11:40:11;;;;;;;8.77;7.07;;;15.00;99.90;;;;;;5052636;28;20012;-46
2023/04/24 11:42:42;;;;;;;10.57;6.60;;;15.70;98.50;;;;;;5052515;28;20028;-51
2023/04/24 11:45:16;;;;;;;11.68;6.78;;;16.00;96.10;;;;;;5052415;28;20052;-46
2023/04/24 11:47:43;;;;;;;9.27;6.53;;;15.30;96.00;;;;;;5046733;28;20506;-43
2023/04/24 11:50:13;;;;;;;9.57;6.93;;;14.80;96.60;;;;;;5055417;28;20033;-46
2023/04/24 11:52:39;;;;;;;;;;;14.20;97.90;;;;;;5053009;28;20046;-49
2023/04/24 11:55:16;;;;;;;10.35;6.75;;;13.80;99.90;;;;;;5051941;28;19913;-44
2023/04/24 11:57:53;;;;;;;11.45;7.20;;;13.70;99.90;;;;;;5052345;28;20025;-44
2023/04/24 12:00:27;;;;;;;11.63;7.25;;;14.00;99.90;;;;;;5049483;28;20025;-47
2023/04/24 12:03:05;;;;;;;10.80;7.53;;;16.20;99.90;;;;;;5052399;28;20028;-44
2023/04/24 12:05:31;;;;;;;10.02;6.82;;;18.60;94.60;;;;;;5051099;28;20024;-47
2023/04/24 12:07:57;;;;;;;10.10;5.75;;;20.10;93.60;;;;;;5051754;28;20036;-46
2023/04/24 12:10:28;;;;;;;9.02;5.75;;;21.50;80.10;;;;;;5052086;28;20438;-53
2023/04/24 12:12:56;;;;;;;7.78;5.75;;;22.10;71.80;;;;;;5052190;28;20021;-57
2023/04/24 12:15:22;;;;;;;9.52;6.13;;;21.70;75.20;;;;;;5051808;28;20435;-57
2023/04/24 12:17:51;;;;;;;8.18;5.55;;;21.70;73.40;;;;;;5048261;28;20029;-54
2023/04/24 12:20:17;;;;;;;10.40;5.45;;;21.60;69.50;;;;;;5051558;28;20267;-59
2023/04/24 12:22:54;;;;;;;7.97;5.13;;;21.50;66.40;;;;;;5051928;28;20432;-57
2023/04/24 12:25:21;;;;;;;7.35;4.90;;;21.50;70.70;;;;;;5051606;28;20041;-55
2023/04/24 12:27:53;;;;;;;9.38;5.47;;;21.20;70.70;;;;;;5051780;28;20126;-56
2023/04/24 12:30:19;;;;;;;10.75;5.38;;;21.30;71.90;;;;;;5051637;28;20071;-44
2023/04/24 12:32:47;;;;;;;9.63;5.40;;;20.80;67.20;;;;;;5051690;28;20036;-50
2023/04/24 12:35:14;;;;;;;10.13;6.22;;;19.50;71.70;;;;;;5051429;28;20021;-45
2023/04/24 12:37:42;;;;;;;9.63;6.45;;;18.10;75.80;;;;;;5051479;28;20086;-43